CDT,Max TemperatureF,Mean TemperatureF,Min TemperatureF,Max Dew PointF,MeanDew PointF,Min DewpointF,Max Humidity, Mean Humidity, Min Humidity, Max Sea Level PressureIn, Mean Sea Level PressureIn, Min Sea Level PressureIn, Max VisibilityMiles, Mean VisibilityMiles, Min VisibilityMiles, Max Wind SpeedMPH, Mean Wind SpeedMPH, Max Gust SpeedMPH,PrecipitationIn, CloudCover, Events, WindDirDegrees
2012-9-1,79,77,75,73,73,72,94,90,79,29.86,29.81,29.74,10,8,1,16,9,21,0.25,8,Rain,144
2012-9-2,84,78,73,74,72,72,94,88,67,29.83,29.79,29.75,10,7,1,13,6,21,0.15,8,Rain,326
2012-9-3,90,81,73,73,71,70,96,80,53,29.91,29.86,29.82,10,9,6,10,7,,0.00,6,,358
2012-9-4,90,79,69,72,69,65,100,78,46,29.92,29.86,29.81,10,8,2,8,2,,0.00,0,,201
2012-9-5,84,76,68,72,68,63,100,88,65,29.93,29.85,29.79,10,7,1,37,7,48,0.19,3,Rain-Thunderstorm,94
2012-9-6,91,78,64,73,68,61,100,86,50,29.95,29.89,29.86,10,5,0,7,1,,0.00,2,Fog,96
2012-9-7,90,77,64,75,66,59,94,81,50,29.89,29.78,29.65,10,9,0,29,7,41,1.01,4,Fog-Rain-Thunderstorm,351
2012-9-8,75,66,57,57,52,48,86,64,40,30.03,29.97,29.92,10,10,10,15,10,22,0.00,0,,315
2012-9-9,75,65,55,55,51,49,84,65,41,30.14,30.05,29.92,10,10,10,13,6,21,0.00,0,,338
2012-9-10,78,64,50,56,52,48,96,78,39,30.22,30.15,30.09,10,7,0,10,2,,0.00,1,Fog,134
2012-9-11,84,69,54,59,56,52,97,69,39,30.17,30.11,30.06,10,10,7,16,4,20,0.00,0,,154
2012-9-12,87,70,55,60,57,54,97,69,36,30.17,30.12,30.08,10,9,2,16,7,24,0.00,0,,139
2012-9-13,86,70,57,64,57,53,93,73,43,30.31,30.21,30.14,10,10,5,20,5,26,0.00,4,,33
2012-9-14,71,62,55,57,54,51,94,79,55,30.36,30.31,30.28,10,9,2,14,9,16,0.22,5,Rain,27
2012-9-15,70,62,54,54,52,48,90,72,47,30.30,30.24,30.14,10,10,10,13,3,,0.00,0,,95
2012-9-16,73,64,54,64,59,53,100,82,64,30.13,30.05,29.98,10,8,0,6,1,,0.00,6,Fog,152
2012-9-17,75,65,57,67,63,56,100,91,76,29.98,29.89,29.78,10,3,0,20,3,26,0.15,7,Fog-Rain-Thunderstorm,69
2012-9-18,68,59,48,55,45,37,88,66,33,30.09,29.98,29.87,10,10,10,15,9,22,0.00,1,Rain,323
2012-9-19,75,58,42,50,44,41,100,76,35,30.14,30.07,29.94,10,6,0,20,3,26,0.00,1,Fog,187
2012-9-20,78,66,50,56,47,32,94,62,19,30.00,29.95,29.92,10,10,9,13,4,18,0.03,1,Rain-Thunderstorm,281
2012-9-21,84,67,50,60,51,45,89,61,29,30.00,29.85,29.67,10,10,9,23,7,31,0.00,1,,273
2012-9-22,68,56,46,50,40,28,93,62,25,30.23,30.05,29.90,10,9,1,17,6,24,0.00,0,,321
2012-9-23,66,52,37,43,37,31,89,59,27,30.33,30.27,30.23,10,10,10,10,3,18,0.00,0,,325
2012-9-24,73,54,37,48,41,36,100,66,30,30.26,30.13,29.93,10,10,10,16,4,21,0.00,1,,162
2012-9-25,80,68,57,67,61,49,94,82,54,29.95,29.87,29.78,10,8,1,33,8,41,1.74,4,Rain-Thunderstorm,132
2012-9-26,75,70,64,65,64,63,96,87,66,30.07,29.98,29.90,10,9,2,12,6,24,0.20,4,Rain-Thunderstorm,245
2012-9-27,70,65,60,64,62,58,100,91,68,30.17,30.11,30.06,10,5,0,10,2,,0.01,5,Fog,30
2012-9-28,72,63,55,54,50,45,87,67,41,30.18,30.13,30.09,10,10,9,12,6,,0.02,3,Rain,33
2012-9-29,75,60,46,55,49,45,100,76,40,30.15,30.08,29.99,10,8,2,8,2,,0.00,0,,319
2012-9-30,73,62,50,55,50,47,100,75,41,29.98,29.91,29.84,10,8,0,9,1,,0.00,0,Fog,48